createdAt,value
2022-11-19T00:02:01.993Z,98578.97
2022-11-19T00:04:29.899Z,98568.25
2022-11-19T00:06:58.374Z,98581.50
2022-11-19T00:09:26.254Z,98583.84
2022-11-19T00:12:27.531Z,98592.78
2022-11-19T00:14:55.306Z,98589.53
2022-11-19T00:17:23.102Z,98600.19
2022-11-19T00:19:50.942Z,98605.91
2022-11-19T00:22:18.855Z,98604.91
2022-11-19T00:24:46.769Z,98609.75
2022-11-19T00:27:16.004Z,98607.38
2022-11-19T00:29:43.799Z,98605.53
2022-11-19T00:32:11.592Z,98631.63
2022-11-19T00:34:39.459Z,98632.22
2022-11-19T00:37:07.270Z,98641.22
2022-11-19T00:39:35.147Z,98640.44
2022-11-19T00:42:02.947Z,98638.75
2022-11-19T00:44:36.934Z,98651.84
2022-11-19T00:47:05.287Z,98646.22
2022-11-19T00:49:33.363Z,98643.91
2022-11-19T00:52:01.189Z,98659.56
2022-11-19T00:54:28.989Z,98674.16
2022-11-19T00:56:56.807Z,98683.09
2022-11-19T00:59:24.652Z,98678.84
2022-11-19T01:01:53.857Z,98672.28
2022-11-19T01:04:21.982Z,98688.88
2022-11-19T01:06:49.779Z,98685.06
2022-11-19T01:09:17.979Z,98681.81
2022-11-19T01:11:46.157Z,98687.75
2022-11-19T01:14:14.146Z,98678.72
2022-11-19T01:16:43.106Z,98674.63
2022-11-19T01:19:16.210Z,98694.59
2022-11-19T01:21:44.186Z,98688.25
2022-11-19T01:24:11.975Z,98697.28
2022-11-19T01:26:44.479Z,98686.19
2022-11-19T01:29:13.863Z,98697.13
2022-11-19T01:31:41.777Z,98693.91
2022-11-19T01:34:09.640Z,98692.28
2022-11-19T01:36:38.887Z,98684.88
2022-11-19T01:39:06.670Z,98697.34
2022-11-19T01:41:34.583Z,98705.59
2022-11-19T01:44:04.915Z,98698.00
2022-11-19T01:46:34.874Z,98707.00
2022-11-19T01:49:05.522Z,98705.78
2022-11-19T01:51:37.365Z,98699.28
2022-11-19T01:54:11.632Z,98705.91
2022-11-19T01:56:40.214Z,98708.03
2022-11-19T01:59:12.281Z,98717.22
2022-11-19T02:01:40.213Z,98730.31
2022-11-19T02:04:09.002Z,98723.41
2022-11-19T02:06:37.346Z,98735.25
2022-11-19T02:09:06.547Z,98730.31
2022-11-19T02:12:13.968Z,98734.34
2022-11-19T02:14:56.348Z,98730.94
2022-11-19T02:17:40.910Z,98725.09
2022-11-19T02:20:32.788Z,98739.06
2022-11-19T02:23:28.975Z,98737.56
2022-11-19T02:26:17.572Z,98741.75
2022-11-19T02:28:48.836Z,98741.53
2022-11-19T02:31:24.005Z,98748.03
2022-11-19T02:33:59.002Z,98762.03
2022-11-19T02:36:30.965Z,98745.69
2022-11-19T02:39:05.193Z,98757.84
2022-11-19T02:41:37.687Z,98751.06
2022-11-19T02:44:32.862Z,98747.97
2022-11-19T02:47:05.870Z,98748.81
2022-11-19T02:49:36.539Z,98765.34
2022-11-19T02:52:05.362Z,98758.47
2022-11-19T02:54:33.179Z,98779.13
2022-11-19T02:57:02.647Z,98769.75
2022-11-19T02:59:55.893Z,98772.63
2022-11-19T03:02:44.309Z,98780.09
2022-11-19T03:05:17.308Z,98793.22
2022-11-19T03:07:45.312Z,98806.31
2022-11-19T03:10:15.259Z,98801.38
2022-11-19T03:12:50.758Z,98807.03
2022-11-19T03:15:46.588Z,98814.28
2022-11-19T03:18:22.233Z,98820.75
2022-11-19T03:20:55.970Z,98833.09
2022-11-19T03:23:30.560Z,98841.25
2022-11-19T03:26:02.446Z,98843.81
2022-11-19T03:28:35.446Z,98845.34
2022-11-19T03:31:05.159Z,98830.13
2022-11-19T03:33:39.166Z,98836.03
2022-11-19T03:36:11.890Z,98852.44
2022-11-19T03:38:45.228Z,98854.22
2022-11-19T03:41:16.481Z,98874.25
2022-11-19T03:43:47.835Z,98875.50
2022-11-19T03:46:18.870Z,98876.22
2022-11-19T03:48:52.021Z,98898.53
2022-11-19T03:51:24.849Z,98911.72
2022-11-19T03:53:52.820Z,98909.13
2022-11-19T03:56:25.390Z,98924.69
2022-11-19T03:58:54.627Z,98936.25
2022-11-19T04:01:22.885Z,98937.16
2022-11-19T04:04:06.010Z,98939.00
2022-11-19T04:06:33.906Z,98958.34
2022-11-19T04:09:01.743Z,98930.19
2022-11-19T04:11:29.530Z,98940.84
2022-11-19T04:13:57.305Z,98939.84
2022-11-19T04:16:25.154Z,98922.22
2022-11-19T04:18:54.325Z,98955.97
2022-11-19T04:21:22.273Z,98967.06
2022-11-19T04:23:50.169Z,98960.28
2022-11-19T04:26:17.976Z,98962.06
2022-11-19T04:28:45.774Z,98959.53
2022-11-19T04:31:17.891Z,98971.78
2022-11-19T04:33:46.108Z,98970.84
2022-11-19T04:36:15.479Z,98974.16
2022-11-19T04:38:43.242Z,98968.47
2022-11-19T04:41:11.242Z,98979.56
2022-11-19T04:43:39.103Z,98969.88
2022-11-19T04:46:07.316Z,98957.53
2022-11-19T04:48:35.298Z,98960.06
2022-11-19T04:51:03.099Z,98964.38
2022-11-19T04:53:32.257Z,98959.53
2022-11-19T04:56:00.170Z,98966.75
2022-11-19T04:58:27.955Z,98973.53
2022-11-19T05:00:55.832Z,98974.25
2022-11-19T05:03:23.767Z,98985.63
2022-11-19T05:05:51.578Z,98999.59
2022-11-19T05:08:19.600Z,99012.84
2022-11-19T05:10:48.843Z,99002.06
2022-11-19T05:13:16.638Z,98992.84
2022-11-19T05:15:44.550Z,99002.81
2022-11-19T05:18:13.122Z,98981.13
2022-11-19T05:20:41.325Z,99002.69
2022-11-19T05:23:09.441Z,98993.28
2022-11-19T05:25:37.261Z,98991.25
2022-11-19T05:28:06.533Z,99002.44
2022-11-19T05:30:34.348Z,98992.19
2022-11-19T05:33:02.175Z,99002.81
2022-11-19T05:35:30.050Z,99017.75
2022-11-19T05:37:57.831Z,99035.44
2022-11-19T05:40:25.699Z,99047.69
2022-11-19T05:42:53.517Z,99034.66
2022-11-19T05:45:22.713Z,99045.78
2022-11-19T05:47:55.518Z,99041.63
2022-11-19T05:50:23.579Z,99023.31
2022-11-19T05:52:51.473Z,99048.84
2022-11-19T05:55:20.737Z,99052.91
2022-11-19T05:57:48.873Z,99052.06
2022-11-19T06:00:17.677Z,99054.53
2022-11-19T06:02:47.278Z,99056.22
2022-11-19T06:05:15.389Z,99061.31
2022-11-19T06:07:43.330Z,99064.72
2022-11-19T06:10:11.366Z,99067.03
2022-11-19T06:12:44.089Z,99071.94
2022-11-19T06:15:13.827Z,99067.94
2022-11-19T06:17:41.730Z,99085.13
2022-11-19T06:20:12.619Z,99070.75
2022-11-19T06:22:40.910Z,99081.03
2022-11-19T06:25:09.648Z,99093.44
2022-11-19T06:27:37.532Z,99094.28
2022-11-19T06:30:06.613Z,99085.19
2022-11-19T06:32:34.601Z,99089.97
2022-11-19T06:35:02.487Z,99102.44
2022-11-19T06:37:31.884Z,99109.06
2022-11-19T06:39:59.732Z,99101.94
2022-11-19T06:42:39.742Z,99113.56
2022-11-19T06:45:09.516Z,99122.50
2022-11-19T06:47:38.535Z,99128.63
2022-11-19T06:50:07.456Z,99140.78
2022-11-19T06:52:37.138Z,99138.50
2022-11-19T06:55:05.541Z,99124.03
2022-11-19T06:57:33.389Z,99159.63
2022-11-19T07:00:01.191Z,99142.41
2022-11-19T07:02:29.361Z,99145.53
2022-11-19T07:04:57.371Z,99144.59
2022-11-19T07:07:25.283Z,99150.38
2022-11-19T07:09:54.540Z,99149.19
2022-11-19T07:12:22.329Z,99153.59
2022-11-19T07:14:50.204Z,99158.50
2022-11-19T07:17:18.007Z,99169.06
2022-11-19T07:19:45.902Z,99181.97
2022-11-19T07:22:14.466Z,99182.47
2022-11-19T07:24:42.389Z,99174.50
2022-11-19T07:27:11.702Z,99191.31
2022-11-19T07:29:39.782Z,99188.22
2022-11-19T07:32:07.672Z,99196.97
2022-11-19T07:34:35.538Z,99198.78
2022-11-19T07:37:03.367Z,99190.63
2022-11-19T07:39:31.234Z,99194.00
2022-11-19T07:42:16.650Z,99182.72
2022-11-19T07:44:50.832Z,99182.88
2022-11-19T07:47:21.889Z,99179.13
2022-11-19T07:49:49.763Z,99185.22
2022-11-19T07:52:17.624Z,99189.66
2022-11-19T07:54:45.457Z,99187.78
2022-11-19T07:57:13.298Z,99188.88
2022-11-19T07:59:41.070Z,99191.31
2022-11-19T08:02:12.199Z,99190.63
2022-11-19T08:04:40.129Z,99187.81
2022-11-19T08:07:08.476Z,99198.34
2022-11-19T08:09:36.408Z,99197.81
2022-11-19T08:12:04.442Z,99220.94
2022-11-19T08:14:32.343Z,99225.69
2022-11-19T08:17:17.902Z,99221.41
2022-11-19T08:19:47.041Z,99235.56
2022-11-19T08:22:14.970Z,99243.13
2022-11-19T08:24:42.744Z,99230.19
2022-11-19T08:27:10.592Z,99239.47
2022-11-19T08:29:38.478Z,99246.28
2022-11-19T08:32:06.402Z,99252.06
2022-11-19T08:34:34.298Z,99252.00
2022-11-19T08:37:03.499Z,99248.94
2022-11-19T08:39:31.998Z,99255.41
2022-11-19T08:42:17.430Z,99251.22
2022-11-19T08:44:45.378Z,99258.03
2022-11-19T08:47:13.160Z,99255.25
2022-11-19T08:49:40.982Z,99252.28
2022-11-19T08:52:10.086Z,99248.63
2022-11-19T08:54:37.950Z,99251.09
2022-11-19T08:57:05.843Z,99267.09
2022-11-19T08:59:33.699Z,99261.09
2022-11-19T09:02:01.578Z,99267.56
2022-11-19T09:04:29.395Z,99274.97
2022-11-19T09:06:58.208Z,99283.16
2022-11-19T09:09:27.395Z,99283.41
2022-11-19T09:11:55.927Z,99286.03
2022-11-19T09:14:23.822Z,99292.88
2022-11-19T09:16:51.675Z,99278.66
2022-11-19T09:19:19.588Z,99282.44
2022-11-19T09:21:47.443Z,99276.56
2022-11-19T09:24:15.310Z,99276.72
2022-11-19T09:26:48.846Z,99285.22
2022-11-19T09:29:19.774Z,99292.63
2022-11-19T09:31:47.603Z,99289.06
2022-11-19T09:34:15.423Z,99301.59
2022-11-19T09:36:43.287Z,99288.00
2022-11-19T09:39:11.464Z,99285.69
2022-11-19T09:41:51.088Z,99285.53
2022-11-19T09:44:32.948Z,99290.84
2022-11-19T09:47:10.162Z,99292.78
2022-11-19T09:49:44.150Z,99284.59
2022-11-19T09:52:15.958Z,99280.53
2022-11-19T09:54:48.238Z,99272.84
2022-11-19T09:57:22.725Z,99273.94
2022-11-19T09:59:54.627Z,99269.72
2022-11-19T10:02:24.114Z,99280.75
2022-11-19T10:04:52.935Z,99273.41
2022-11-19T10:07:32.479Z,99281.66
2022-11-19T10:10:14.228Z,99292.44
2022-11-19T10:13:11.585Z,99289.19
2022-11-19T10:15:51.404Z,99291.38
2022-11-19T10:18:25.924Z,99278.78
2022-11-19T10:20:59.255Z,99282.25
2022-11-19T10:23:36.372Z,99285.09
2022-11-19T10:26:07.672Z,99282.91
2022-11-19T10:28:40.851Z,99287.31
2022-11-19T10:31:14.215Z,99288.28
2022-11-19T10:33:50.110Z,99293.22
2022-11-19T10:36:22.720Z,99288.22
2022-11-19T10:38:56.897Z,99285.97
2022-11-19T10:41:34.203Z,99284.13
2022-11-19T10:44:37.505Z,99292.06
2022-11-19T10:47:06.002Z,99285.84
2022-11-19T10:49:39.821Z,99290.16
2022-11-19T10:52:16.740Z,99296.84
2022-11-19T10:54:46.101Z,99288.25
2022-11-19T10:57:18.481Z,99294.09
2022-11-19T10:59:51.286Z,99295.09
2022-11-19T11:02:28.227Z,99294.59
2022-11-19T11:05:06.168Z,99294.03
2022-11-19T11:07:52.696Z,99295.03
2022-11-19T11:10:42.937Z,99295.81
2022-11-19T11:13:38.834Z,99298.47
2022-11-19T11:16:11.718Z,99301.75
2022-11-19T11:18:40.776Z,99302.59
2022-11-19T11:21:13.531Z,99299.34
2022-11-19T11:23:50.764Z,99299.50
2022-11-19T11:26:24.787Z,99299.91
2022-11-19T11:28:59.890Z,99301.34
2022-11-19T11:31:35.244Z,99293.75
2022-11-19T11:34:04.366Z,99290.09
2022-11-19T11:36:34.068Z,99282.53
2022-11-19T11:39:03.566Z,99283.31
2022-11-19T11:44:29.941Z,99279.00
2022-11-19T11:47:02.496Z,99286.06
2022-11-19T11:49:35.000Z,99278.25
2022-11-19T11:52:16.916Z,99274.72
2022-11-19T11:54:59.158Z,99273.09
2022-11-19T11:57:29.097Z,99273.16
2022-11-19T11:59:57.606Z,99273.16
2022-11-19T12:02:30.386Z,99266.50
2022-11-19T12:05:02.187Z,99271.25
2022-11-19T12:07:56.191Z,99288.53
2022-11-19T12:10:29.798Z,99315.13
2022-11-19T12:13:28.371Z,99312.53
2022-11-19T12:16:05.100Z,99301.81
2022-11-19T12:18:43.866Z,99302.56
2022-11-19T12:21:19.307Z,99309.06
2022-11-19T12:23:59.565Z,99305.31
2022-11-19T12:26:34.762Z,99301.38
2022-11-19T12:29:19.631Z,99301.66
2022-11-19T12:32:10.712Z,99303.75
2022-11-19T12:35:05.150Z,99308.72
2022-11-19T12:37:51.634Z,99304.44
2022-11-19T12:40:38.863Z,99305.69
2022-11-19T12:43:24.118Z,99310.06
2022-11-19T12:46:00.471Z,99311.75
2022-11-19T12:48:45.926Z,99288.28
2022-11-19T12:51:28.793Z,99296.78
2022-11-19T12:54:26.749Z,99297.88
2022-11-19T12:57:15.478Z,99312.75
2022-11-19T13:00:03.401Z,99302.59
2022-11-19T13:02:36.181Z,99307.56
2022-11-19T13:05:08.474Z,99311.66
2022-11-19T13:07:40.820Z,99305.56
2022-11-19T13:10:15.775Z,99305.56
2022-11-19T13:12:49.988Z,99304.84
2022-11-19T13:15:22.129Z,99306.28
2022-11-19T13:17:52.619Z,99297.66
2022-11-19T13:20:26.586Z,99306.72
2022-11-19T13:23:00.746Z,99306.72
2022-11-19T13:25:32.507Z,99318.25
2022-11-19T13:28:04.445Z,99299.09
2022-11-19T13:30:33.841Z,99310.56
2022-11-19T13:33:11.950Z,99298.81
2022-11-19T13:35:47.405Z,99292.00
2022-11-19T13:38:23.339Z,99288.75
2022-11-19T13:40:59.579Z,99291.38
2022-11-19T13:43:45.101Z,99311.91
2022-11-19T13:46:21.578Z,99325.66
2022-11-19T13:48:56.753Z,99330.38
2022-11-19T13:51:30.303Z,99331.22
2022-11-19T13:54:03.304Z,99335.19
2022-11-19T13:56:46.657Z,99295.38
2022-11-19T13:59:29.633Z,99323.38
2022-11-19T14:02:24.048Z,99319.94
2022-11-19T14:05:18.279Z,99324.03
2022-11-19T14:08:04.840Z,99322.44
2022-11-19T14:10:38.833Z,99333.78
2022-11-19T14:13:32.455Z,99334.50
2022-11-19T14:16:31.805Z,99348.50
2022-11-19T14:19:21.578Z,99351.28
2022-11-19T14:22:12.435Z,99346.47
2022-11-19T14:25:14.515Z,99358.63
2022-11-19T14:27:44.305Z,99348.38
2022-11-19T14:30:22.278Z,99343.59
2022-11-19T14:32:52.795Z,99333.69
2022-11-19T14:35:38.562Z,99325.50
2022-11-19T14:38:32.735Z,99320.47
2022-11-19T14:41:08.174Z,99335.59
2022-11-19T14:44:09.423Z,99332.34
2022-11-19T14:46:41.753Z,99342.94
2022-11-19T14:49:25.764Z,99347.06
2022-11-19T14:51:55.839Z,99333.09
2022-11-19T14:54:31.951Z,99326.47
2022-11-19T14:57:03.951Z,99325.56
2022-11-19T14:59:38.649Z,99310.28
2022-11-19T15:02:17.199Z,99329.38
2022-11-19T15:04:54.694Z,99338.25
2022-11-19T15:07:38.507Z,99348.84
2022-11-19T15:10:29.219Z,99330.88
2022-11-19T15:13:18.374Z,99351.41
2022-11-19T15:15:50.015Z,99349.84
2022-11-19T15:18:53.053Z,99349.44
2022-11-19T15:21:34.056Z,99350.81
2022-11-19T15:24:12.528Z,99351.81
2022-11-19T15:26:47.795Z,99338.69
2022-11-19T15:29:25.160Z,99348.88
2022-11-19T15:32:16.777Z,99352.22
2022-11-19T15:35:11.226Z,99347.41
2022-11-19T15:37:46.914Z,99350.13
2022-11-19T15:40:19.656Z,99346.16
2022-11-19T15:42:54.208Z,99344.69
2022-11-19T15:45:24.283Z,99339.66
2022-11-19T15:47:58.484Z,99353.78
2022-11-19T15:50:29.081Z,99342.34
2022-11-19T15:53:01.471Z,99338.09
2022-11-19T15:55:31.915Z,99344.75
2022-11-19T15:58:03.524Z,99349.78
2022-11-19T16:00:31.684Z,99353.63
2022-11-19T16:03:03.809Z,99357.75
2022-11-19T16:05:34.097Z,99354.50
2022-11-19T16:08:06.838Z,99343.66
2022-11-19T16:10:36.579Z,99355.34
2022-11-19T16:13:39.753Z,99356.13
2022-11-19T16:16:33.842Z,99351.09
2022-11-19T16:19:03.014Z,99356.97
2022-11-19T16:21:34.645Z,99368.72
2022-11-19T16:24:21.350Z,99371.97
2022-11-19T16:26:49.964Z,99382.78
2022-11-19T16:29:21.029Z,99376.63
2022-11-19T16:31:50.278Z,99383.91
2022-11-19T16:34:23.447Z,99393.63
2022-11-19T16:36:52.457Z,99379.88
2022-11-19T16:39:23.222Z,99379.00
2022-11-19T16:42:14.085Z,99381.44
2022-11-19T16:44:44.515Z,99386.44
2022-11-19T16:47:20.522Z,99382.13
2022-11-19T16:50:00.719Z,99378.03
2022-11-19T16:52:39.759Z,99376.78
2022-11-19T16:55:33.974Z,99372.59
2022-11-19T16:58:03.797Z,99373.69
2022-11-19T17:00:36.541Z,99389.22
2022-11-19T17:03:18.284Z,99399.81
2022-11-19T17:05:49.731Z,99380.88
2022-11-19T17:08:23.051Z,99414.72
2022-11-19T17:11:11.060Z,99416.50
2022-11-19T17:13:39.093Z,99414.88
2022-11-19T17:16:19.144Z,99416.56
2022-11-19T17:18:47.124Z,99414.94
2022-11-19T17:21:26.873Z,99416.66
2022-11-19T17:23:55.407Z,99412.31
2022-11-19T17:26:28.618Z,99426.53
2022-11-19T17:29:09.787Z,99418.03
2022-11-19T17:31:38.060Z,99426.53
2022-11-19T17:34:12.427Z,99407.53
2022-11-19T17:36:42.498Z,99391.69
2022-11-19T17:39:12.115Z,99393.16
2022-11-19T17:41:58.973Z,99398.66
2022-11-19T17:44:39.201Z,99408.69
2022-11-19T17:47:24.802Z,99408.56
2022-11-19T17:49:53.591Z,99420.84
2022-11-19T17:52:24.899Z,99412.34
2022-11-19T17:54:54.452Z,99425.94
2022-11-19T17:57:22.504Z,99423.53
2022-11-19T17:59:50.338Z,99414.47
2022-11-19T18:02:20.368Z,99418.44
2022-11-19T18:04:49.360Z,99416.06
2022-11-19T18:07:17.519Z,99395.19
2022-11-19T18:09:46.711Z,99402.91
2022-11-19T18:12:17.420Z,99396.41
2022-11-19T18:14:45.828Z,99391.31
2022-11-19T18:17:14.766Z,99404.59
2022-11-19T18:19:43.090Z,99396.28
2022-11-19T18:22:18.027Z,99399.72
2022-11-19T18:24:50.142Z,99402.34
2022-11-19T18:27:18.351Z,99402.44
2022-11-19T18:29:46.268Z,99395.09
2022-11-19T18:32:16.857Z,99401.19
2022-11-19T18:34:45.835Z,99395.78
2022-11-19T18:37:13.880Z,99388.69
2022-11-19T18:39:41.738Z,99380.97
2022-11-19T18:42:12.758Z,99374.03
2022-11-19T18:44:41.633Z,99366.59
2022-11-19T18:47:11.013Z,99360.66
2022-11-19T18:49:39.221Z,99355.00
2022-11-19T18:52:08.442Z,99350.06
2022-11-19T18:54:36.970Z,99347.69
2022-11-19T18:57:05.334Z,99346.81
2022-11-19T18:59:34.658Z,99347.69
2022-11-19T19:02:02.573Z,99353.47
2022-11-19T19:04:30.578Z,99351.63
2022-11-19T19:06:59.199Z,99349.59
2022-11-19T19:09:27.211Z,99359.31
2022-11-19T19:12:13.884Z,99358.19
2022-11-19T19:14:43.790Z,99340.81
2022-11-19T19:17:12.710Z,99351.47
2022-11-19T19:19:40.739Z,99361.13
2022-11-19T19:22:09.025Z,99366.75
2022-11-19T19:24:36.878Z,99381.50
2022-11-19T19:27:05.472Z,99372.84
2022-11-19T19:29:33.759Z,99364.69
2022-11-19T19:32:02.919Z,99370.81
2022-11-19T19:34:30.906Z,99384.66
2022-11-19T19:36:58.802Z,99355.59
2022-11-19T19:39:26.927Z,99392.72
2022-11-19T19:41:54.905Z,99381.56
2022-11-19T19:44:22.717Z,99384.38
2022-11-19T19:46:50.572Z,99379.75
2022-11-19T19:49:20.088Z,99383.75
2022-11-19T19:51:48.477Z,99395.00
2022-11-19T19:54:16.867Z,99391.84
2022-11-19T19:56:44.732Z,99390.22
2022-11-19T19:59:14.377Z,99387.50
2022-11-19T20:01:46.074Z,99387.69
2022-11-19T20:04:14.701Z,99394.25
2022-11-19T20:06:47.209Z,99389.91
2022-11-19T20:09:15.414Z,99387.59
2022-11-19T20:11:43.186Z,99390.53
2022-11-19T20:14:12.138Z,99395.09
2022-11-19T20:16:41.722Z,99411.72
2022-11-19T20:19:15.921Z,99401.19
2022-11-19T20:21:47.085Z,99400.97
2022-11-19T20:24:16.507Z,99404.16
2022-11-19T20:26:44.328Z,99399.19
2022-11-19T20:29:14.042Z,99395.34
2022-11-19T20:31:45.871Z,99370.84
2022-11-19T20:34:13.869Z,99389.91
2022-11-19T20:36:41.817Z,99391.00
2022-11-19T20:39:11.139Z,99387.34
2022-11-19T20:41:56.798Z,99394.25
2022-11-19T20:44:24.688Z,99388.53
2022-11-19T20:46:53.679Z,99383.56
2022-11-19T20:49:23.364Z,99381.25
2022-11-19T20:51:52.575Z,99386.28
2022-11-19T20:54:22.235Z,99364.41
2022-11-19T20:56:51.426Z,99340.19
2022-11-19T20:59:19.824Z,99377.16
2022-11-19T21:01:49.799Z,99382.72
2022-11-19T21:04:18.100Z,99388.38
2022-11-19T21:06:46.462Z,99394.41
2022-11-19T21:09:15.715Z,99383.97
2022-11-19T21:11:44.985Z,99392.09
2022-11-19T21:14:12.979Z,99398.44
2022-11-19T21:16:40.890Z,99408.00
2022-11-19T21:19:10.026Z,99409.22
2022-11-19T21:21:38.438Z,99398.25
2022-11-19T21:24:07.243Z,99405.84
2022-11-19T21:26:35.142Z,99415.56
2022-11-19T21:29:04.686Z,99405.34
2022-11-19T21:31:42.168Z,99405.34
2022-11-19T21:34:12.366Z,99398.63
2022-11-19T21:36:41.955Z,99412.16
2022-11-19T21:39:10.664Z,99405.50
2022-11-19T21:41:38.712Z,99403.63
2022-11-19T21:44:08.107Z,99408.06
2022-11-19T21:46:36.750Z,99423.13
2022-11-19T21:49:04.829Z,99418.94
2022-11-19T21:51:32.884Z,99408.44
2022-11-19T21:54:00.831Z,99402.72
2022-11-19T21:56:33.787Z,99400.56
2022-11-19T21:59:05.154Z,99407.47
2022-11-19T22:01:34.265Z,99403.97
2022-11-19T22:04:02.091Z,99399.03
2022-11-19T22:06:31.207Z,99396.41
2022-11-19T22:08:59.144Z,99402.38
2022-11-19T22:11:29.775Z,99387.84
2022-11-19T22:14:00.767Z,99390.00
2022-11-19T22:16:29.413Z,99396.28
2022-11-19T22:18:58.536Z,99394.84
2022-11-19T22:21:27.289Z,99385.28
2022-11-19T22:23:55.153Z,99378.94
2022-11-19T22:26:23.184Z,99379.88
2022-11-19T22:28:50.989Z,99349.56
2022-11-19T22:31:18.943Z,99378.53
2022-11-19T22:33:47.805Z,99386.09
2022-11-19T22:36:17.030Z,99386.09
2022-11-19T22:38:45.513Z,99387.56
2022-11-19T22:41:16.057Z,99384.16
2022-11-19T22:43:44.439Z,99386.56
2022-11-19T22:46:13.794Z,99385.72
2022-11-19T22:48:42.231Z,99380.94
2022-11-19T22:51:12.756Z,99366.09
2022-11-19T22:53:42.387Z,99329.81
2022-11-19T22:56:14.293Z,99361.28
2022-11-19T22:58:43.069Z,99364.53
2022-11-19T23:01:17.598Z,99359.59
2022-11-19T23:03:46.108Z,99340.31
2022-11-19T23:06:14.396Z,99348.06
2022-11-19T23:08:43.795Z,99340.66
2022-11-19T23:11:13.206Z,99341.59
2022-11-19T23:13:42.429Z,99343.34
2022-11-19T23:16:12.347Z,99325.13
2022-11-19T23:18:42.029Z,99328.22
2022-11-19T23:21:12.744Z,99319.75
2022-11-19T23:23:40.868Z,99327.63
2022-11-19T23:26:12.406Z,99325.94
2022-11-19T23:28:40.712Z,99333.97
2022-11-19T23:31:10.714Z,99331.84
2022-11-19T23:33:38.670Z,99331.69
2022-11-19T23:36:09.216Z,99325.81
2022-11-19T23:38:37.687Z,99317.78
2022-11-19T23:41:07.120Z,99313.09
2022-11-19T23:43:37.288Z,99302.44
2022-11-19T23:46:07.151Z,99313.56
2022-11-19T23:48:35.890Z,99300.59
2022-11-19T23:51:03.830Z,99298.38
2022-11-19T23:53:31.828Z,99298.53
2022-11-19T23:56:00.556Z,99299.97
2022-11-19T23:58:29.002Z,99281.72
